createdAt,value
2023-03-05T00:01:41.789Z,17.80
2023-03-05T00:11:43.060Z,17.76
2023-03-05T00:21:44.390Z,17.77
2023-03-05T00:31:45.676Z,17.77
2023-03-05T00:41:46.932Z,17.78
2023-03-05T00:51:49.452Z,17.72
2023-03-05T01:01:50.740Z,17.77
2023-03-05T01:11:51.994Z,17.73
2023-03-05T01:21:53.394Z,17.76
2023-03-05T01:31:54.724Z,17.71
2023-03-05T01:41:55.995Z,17.70
2023-03-05T01:51:57.265Z,17.69
2023-03-05T02:01:58.600Z,17.69
2023-03-05T02:11:59.856Z,17.71
2023-03-05T02:22:01.104Z,17.70
2023-03-05T02:32:02.467Z,17.71
2023-03-05T02:42:03.832Z,17.77
2023-03-05T02:52:05.116Z,17.78
2023-03-05T03:02:06.357Z,17.86
2023-03-05T03:12:07.631Z,17.85
2023-03-05T03:22:08.842Z,17.84
2023-03-05T03:32:10.166Z,17.90
2023-03-05T03:42:11.471Z,17.90
2023-03-05T03:52:12.744Z,17.94
2023-03-05T04:02:14.036Z,17.94
2023-03-05T04:12:15.366Z,17.95
2023-03-05T04:22:16.627Z,17.96
2023-03-05T04:32:17.927Z,18.04
2023-03-05T04:42:19.214Z,18.07
2023-03-05T04:52:20.471Z,18.06
2023-03-05T05:02:21.767Z,18.09
2023-03-05T05:12:23.034Z,18.13
2023-03-05T05:22:24.341Z,18.10
2023-03-05T05:32:25.763Z,18.20
2023-03-05T05:42:27.077Z,18.18
2023-03-05T05:52:28.327Z,18.16
2023-03-05T06:02:29.569Z,18.18
2023-03-05T06:12:30.817Z,18.17
2023-03-05T06:22:32.089Z,18.29
2023-03-05T06:32:33.429Z,18.29
2023-03-05T06:42:34.727Z,18.26
2023-03-05T06:52:35.972Z,18.26
2023-03-05T07:02:37.283Z,18.28
2023-03-05T07:12:38.554Z,18.39
2023-03-05T07:22:39.896Z,18.40
2023-03-05T07:32:41.192Z,18.45
2023-03-05T07:42:42.475Z,18.51
2023-03-05T07:52:43.766Z,18.52
2023-03-05T08:02:45.108Z,18.49
2023-03-05T08:12:46.439Z,18.50
2023-03-05T08:22:47.687Z,18.52
2023-03-05T08:32:48.949Z,18.49
2023-03-05T08:42:50.231Z,18.45
2023-03-05T08:52:51.512Z,18.46
2023-03-05T09:02:52.833Z,18.43
2023-03-05T09:12:54.166Z,18.50
2023-03-05T09:22:55.434Z,18.50
2023-03-05T09:32:56.730Z,18.46
2023-03-05T09:42:58.017Z,18.50
2023-03-05T09:52:59.278Z,18.52
2023-03-05T10:03:00.633Z,18.53
2023-03-05T10:13:04.708Z,18.49
2023-03-05T10:23:06.156Z,18.44
2023-03-05T10:33:08.377Z,18.42
2023-03-05T10:43:14.640Z,18.34
2023-03-05T10:53:25.403Z,18.43
2023-03-05T11:03:30.461Z,18.39
2023-03-05T11:13:38.807Z,18.39
2023-03-05T11:34:12.075Z,18.43
2023-03-05T11:44:23.623Z,18.47
2023-03-05T12:04:53.538Z,18.39
2023-03-05T12:14:54.787Z,18.38
2023-03-05T12:24:56.329Z,18.42
2023-03-05T12:35:04.738Z,18.36
2023-03-05T12:45:10.616Z,18.32
2023-03-05T12:55:19.325Z,18.30
2023-03-05T13:05:28.738Z,18.25
2023-03-05T13:15:42.842Z,18.26
2023-03-05T13:25:44.973Z,18.28
2023-03-05T13:46:15.204Z,18.34
2023-03-05T13:56:16.862Z,18.29
2023-03-05T14:06:19.002Z,18.31
2023-03-05T14:16:26.520Z,18.24
2023-03-05T14:26:34.435Z,18.24
2023-03-05T14:36:43.077Z,18.22
2023-03-05T14:46:51.729Z,18.21
2023-03-05T14:56:58.540Z,18.15
2023-03-05T15:07:15.108Z,18.18
2023-03-05T15:17:24.979Z,18.14
2023-03-05T15:27:26.484Z,17.98
2023-03-05T15:37:33.541Z,17.98
2023-03-05T15:47:38.396Z,17.94
2023-03-05T16:08:08.852Z,17.92
2023-03-05T16:18:10.208Z,18.03
2023-03-05T16:28:11.457Z,17.96
2023-03-05T16:38:12.721Z,17.93
2023-03-05T16:48:13.982Z,17.85
2023-03-05T16:58:15.252Z,17.88
2023-03-05T17:28:55.694Z,17.78
2023-03-05T17:38:56.969Z,17.80
2023-03-05T17:48:58.230Z,17.95
2023-03-05T17:58:59.486Z,17.84
2023-03-05T18:09:00.726Z,17.78
2023-03-05T18:19:01.976Z,17.82
2023-03-05T18:29:03.212Z,17.83
2023-03-05T18:39:04.465Z,17.71
2023-03-05T18:49:05.695Z,17.79
2023-03-05T18:59:06.966Z,17.82
2023-03-05T19:09:08.225Z,17.78
2023-03-05T19:19:09.508Z,17.79
2023-03-05T19:29:10.785Z,17.78
2023-03-05T19:39:12.063Z,17.76
2023-03-05T19:49:13.326Z,17.80
2023-03-05T19:59:14.578Z,17.71
2023-03-05T20:09:15.892Z,17.70
2023-03-05T20:19:17.123Z,17.75
2023-03-05T20:29:18.871Z,17.77
2023-03-05T20:39:20.282Z,17.73
2023-03-05T20:49:21.532Z,17.82
2023-03-05T20:59:22.783Z,17.84
2023-03-05T21:09:24.019Z,17.85
2023-03-05T21:19:25.256Z,17.84
2023-03-05T21:29:26.529Z,17.77
2023-03-05T21:39:27.777Z,17.77
2023-03-05T21:49:29.069Z,17.74
2023-03-05T21:59:30.361Z,17.78
2023-03-05T22:09:31.609Z,17.78
2023-03-05T22:19:32.902Z,17.80
2023-03-05T22:29:34.182Z,17.81
2023-03-05T22:39:35.408Z,17.78
2023-03-05T22:49:36.667Z,17.78
2023-03-05T22:59:37.984Z,17.79
2023-03-05T23:09:39.228Z,17.74
2023-03-05T23:19:40.462Z,17.75
2023-03-05T23:29:41.711Z,17.76
2023-03-05T23:39:42.975Z,17.72
2023-03-05T23:49:44.311Z,17.69
2023-03-05T23:59:45.621Z,17.74
